Jad — FAB3253 — position and weather

sailwx.info

Track history (hours):
 
Tides and Currents Weather Stations Pressure Air Temp Water Temp Dewpoint Dewpoint Depression Visibility Wind Speed Wind Dir Waves Ship Positions

Jad

Last reported at 2017-Nov-17 17:34 UTC. Time now 2017-Nov-22 02:04 UTC.
Position N 14°19' W 060°57'.

Length 12 m.

Type: Sailing vessel. MMSI: 227192370.

Date/timePositionNaut miles runAvg speedWind from/ knotsBaromVisibWave heightAir tempDewpointWater temp
2017-Nov-17 17:34N 14°19' W 060°57'1 6.1
2017-Nov-17 17:29N 14°19' W 060°56'3 5.7
2017-Nov-17 17:01N 14°22' W 060°55'3 5.4
2017-Nov-17 16:30N 14°24' W 060°54'2 4.8
2017-Nov-17 16:00N 14°27' W 060°54'2 4.3
2017-Nov-17 15:30N 14°28' W 060°52'0 0.0
2017-Nov-17 15:00N 14°28' W 060°52'0 0.0
2017-Nov-17 14:29N 14°28' W 060°52'0 0.0
2017-Nov-17 13:59N 14°28' W 060°52'0 0.0
2017-Nov-17 04:20N 14°28' W 060°52'0 0.0
2017-Nov-17 03:59N 14°28' W 060°52'0 0.0
2017-Nov-17 03:29N 14°28' W 060°52'0 0.0
2017-Nov-17 02:56N 14°28' W 060°52'0 0.0
2017-Nov-17 02:29N 14°28' W 060°52'0 0.0
2017-Nov-17 01:56N 14°28' W 060°52'0 0.0
2017-Nov-17 01:29N 14°28' W 060°52'0 0.0
2017-Nov-17 00:59N 14°28' W 060°52'0 0.0
2017-Nov-17 00:29N 14°28' W 060°52'0 0.0
2017-Nov-16 23:59N 14°28' W 060°52'0 0.0
2017-Nov-16 23:29N 14°28' W 060°52'0 0.0
2017-Nov-16 22:59N 14°28' W 060°52'0 0.0
2017-Nov-16 22:29N 14°28' W 060°52'0 0.0
2017-Nov-16 21:59N 14°28' W 060°52'0 0.0
2017-Nov-16 21:26N 14°28' W 060°52'0 0.0
2017-Nov-16 20:59N 14°28' W 060°52'0 0.0
2017-Nov-16 20:29N 14°28' W 060°52'0 0.0
2017-Nov-16 19:59N 14°28' W 060°52'0 0.0
2017-Nov-16 19:29N 14°28' W 060°52'0 0.0
2017-Nov-16 18:55N 14°28' W 060°52'0 0.0
2017-Nov-16 18:29N 14°28' W 060°52'0 0.0
2017-Nov-16 17:59N 14°28' W 060°52'0 0.0
2017-Nov-16 17:26N 14°28' W 060°52'0 0.0
2017-Nov-16 17:00N 14°28' W 060°52'0 0.5
2017-Nov-16 16:31N 14°28' W 060°52'2 4.1
2017-Nov-16 16:00N 14°27' W 060°54'3 5.3
2017-Nov-16 15:30N 14°24' W 060°54'3 5.8
2017-Nov-16 15:00N 14°21' W 060°55'  
2017-Nov-10 13:43N 14°18' W 060°57'1 4.3
2017-Nov-10 13:27N 14°19' W 060°56'3 5.9
2017-Nov-10 13:00N 14°22' W 060°55'3 6.1
2017-Nov-10 12:31N 14°25' W 060°54'2 3.2
2017-Nov-10 12:01N 14°26' W 060°54'2 3.5
2017-Nov-10 11:30N 14°28' W 060°53'1 1.6
2017-Nov-10 10:58N 14°28' W 060°52'0 0.0
2017-Nov-10 10:22N 14°28' W 060°52'0 0.0
2017-Nov-10 09:58N 14°28' W 060°52'0 0.0
2017-Nov-10 09:28N 14°28' W 060°52'0 0.0
2017-Nov-10 08:55N 14°28' W 060°52'0 0.0
2017-Nov-10 08:28N 14°28' W 060°52'0 0.0
2017-Nov-10 07:58N 14°28' W 060°52'0 0.0
2017-Nov-10 07:28N 14°28' W 060°52'0 0.0
2017-Nov-10 06:58N 14°28' W 060°52'0 0.0
2017-Nov-10 06:28N 14°28' W 060°52'0 0.0
2017-Nov-10 05:58N 14°28' W 060°52'0 0.0
2017-Nov-10 05:28N 14°28' W 060°52'0 0.0
2017-Nov-10 04:58N 14°28' W 060°52'0 0.0
2017-Nov-10 04:28N 14°28' W 060°52'0 0.0
2017-Nov-10 04:00N 14°28' W 060°52'0 0.0
2017-Nov-10 03:30N 14°28' W 060°52'0 0.0
2017-Nov-10 02:54N 14°28' W 060°52'0 0.0
2017-Nov-10 02:30N 14°28' W 060°52'0 0.0
2017-Nov-10 02:00N 14°28' W 060°52'0 0.0
2017-Nov-10 01:30N 14°28' W 060°52'0 0.0
2017-Nov-10 00:57N 14°28' W 060°52'0 0.0
2017-Nov-10 00:30N 14°28' W 060°52'0 0.0
2017-Nov-09 23:57N 14°28' W 060°52'0 0.0
2017-Nov-09 23:30N 14°28' W 060°52'0 0.0
2017-Nov-09 23:00N 14°28' W 060°52'0 0.0
2017-Nov-09 22:30N 14°28' W 060°52'0 0.0
2017-Nov-09 22:00N 14°28' W 060°52'0 0.0
2017-Nov-09 21:25N 14°28' W 060°52'0 0.0
2017-Nov-09 20:58N 14°28' W 060°52'0 0.0
2017-Nov-09 20:28N 14°28' W 060°52'0 0.0
2017-Nov-09 19:58N 14°28' W 060°52'0 0.0
2017-Nov-09 19:28N 14°28' W 060°52'0 0.1
2017-Nov-09 18:13N 14°28' W 060°52'0 0.0
2017-Nov-09 17:58N 14°28' W 060°52'0 0.0
2017-Nov-09 17:28N 14°28' W 060°52'0 0.0
2017-Nov-09 16:58N 14°28' W 060°52'0 0.0
2017-Nov-09 16:28N 14°28' W 060°52'0 0.0
2017-Nov-09 15:58N 14°28' W 060°52'0 0.0
2017-Nov-09 15:28N 14°28' W 060°52'0 0.0
2017-Nov-09 14:58N 14°28' W 060°52'0 0.0
2017-Nov-09 14:28N 14°28' W 060°52'0 0.0
2017-Nov-09 13:58N 14°28' W 060°52'0 0.0
2017-Nov-09 13:28N 14°28' W 060°52'0 0.0
2017-Nov-09 12:55N 14°28' W 060°52'0 0.6
2017-Nov-09 12:31N 14°28' W 060°52'1 1.0
2017-Nov-09 12:01N 14°28' W 060°53'1 2.8
2017-Nov-09 11:30N 14°26' W 060°53'0 0.0
2017-Nov-09 10:54N 14°26' W 060°53'0 0.0
2017-Nov-09 10:30N 14°26' W 060°53'0 0.0
2017-Nov-09 10:00N 14°26' W 060°53'0 0.0
2017-Nov-09 09:30N 14°26' W 060°53'0 0.0
2017-Nov-09 08:57N 14°26' W 060°53'0 0.0
2017-Nov-09 08:30N 14°26' W 060°53'0 0.0
2017-Nov-09 08:00N 14°26' W 060°53'0 0.0
2017-Nov-09 07:30N 14°26' W 060°53'0 0.0
2017-Nov-09 07:00N 14°26' W 060°53'0 0.0
2017-Nov-09 06:30N 14°26' W 060°53'0 0.0
2017-Nov-09 06:00N 14°26' W 060°53'0 0.0
2017-Nov-09 05:30N 14°26' W 060°53'0 0.0
2017-Nov-09 05:00N 14°26' W 060°53'0 0.0
2017-Nov-09 04:30N 14°26' W 060°53'0 0.0
2017-Nov-09 04:00N 14°26' W 060°53'0 0.0
2017-Nov-09 03:30N 14°26' W 060°53'0 0.0
2017-Nov-09 02:57N 14°26' W 060°53'0 0.0
2017-Nov-09 02:30N 14°26' W 060°53'0 0.0
2017-Nov-09 02:00N 14°26' W 060°53'0 0.0
2017-Nov-09 01:30N 14°26' W 060°53'0 0.0
2017-Nov-09 01:01N 14°26' W 060°53'0 0.0
2017-Nov-09 00:31N 14°26' W 060°53'0 0.0
2017-Nov-09 00:01N 14°26' W 060°53'0 0.0
2017-Nov-08 23:31N 14°26' W 060°53'0 0.0
2017-Nov-08 23:00N 14°26' W 060°53'0 0.0
2017-Nov-08 22:31N 14°26' W 060°53'0 0.0
2017-Nov-08 21:55N 14°26' W 060°53'0 0.0
2017-Nov-08 21:31N 14°26' W 060°53'0 0.0
2017-Nov-08 21:00N 14°26' W 060°53'0 0.0
2017-Nov-08 20:28N 14°26' W 060°53'0 0.0
2017-Nov-08 20:01N 14°26' W 060°53'0 0.0
2017-Nov-08 19:31N 14°26' W 060°53'0 0.0
2017-Nov-08 19:00N 14°26' W 060°53'0 0.0
2017-Nov-08 18:28N 14°26' W 060°53'0 0.0
2017-Nov-08 17:58N 14°26' W 060°53'0 0.0
2017-Nov-08 17:31N 14°26' W 060°53'0 0.0
2017-Nov-08 17:00N 14°26' W 060°53'0 0.0
2017-Nov-08 16:28N 14°26' W 060°53'0 0.0
2017-Nov-08 15:58N 14°26' W 060°53'0 0.0
2017-Nov-08 15:31N 14°26' W 060°53'0 0.0
2017-Nov-08 15:01N 14°26' W 060°53'0 0.0
2017-Nov-08 14:30N 14°26' W 060°53'0 0.0
2017-Nov-08 13:55N 14°26' W 060°53'0 0.5
2017-Nov-08 13:30N 14°26' W 060°53'3 5.1
2017-Nov-08 13:00N 14°27' W 060°56'2 3.6
2017-Nov-08 12:30N 14°27' W 060°58'2 4.6
2017-Nov-08 12:01N 14°27' W 061°00'  
Track history (hours):
 
Tides and Currents Weather Stations Pressure Air Temp Water Temp Dewpoint Dewpoint Depression Visibility Wind Speed Wind Dir Waves Ship Positions

Jad

Last reported at 2017-Nov-17 17:34 UTC. Time now 2017-Nov-22 02:04 UTC.
Position N 14°19' W 060°57'.

Length 12 m.

Type: Sailing vessel. MMSI: 227192370.

Date/timePositionNaut miles runAvg speedWind from/ knotsBaromVisibWave heightAir tempDewpointWater temp
2017-Nov-17 17:34N 14°19' W 060°57'1 6.1
2017-Nov-17 17:29N 14°19' W 060°56'3 5.7
2017-Nov-17 17:01N 14°22' W 060°55'3 5.4
2017-Nov-17 16:30N 14°24' W 060°54'2 4.8
2017-Nov-17 16:00N 14°27' W 060°54'2 4.3
2017-Nov-17 15:30N 14°28' W 060°52'0 0.0
2017-Nov-17 15:00N 14°28' W 060°52'0 0.0
2017-Nov-17 14:29N 14°28' W 060°52'0 0.0
2017-Nov-17 13:59N 14°28' W 060°52'0 0.0
2017-Nov-17 04:20N 14°28' W 060°52'0 0.0
2017-Nov-17 03:59N 14°28' W 060°52'0 0.0
2017-Nov-17 03:29N 14°28' W 060°52'0 0.0
2017-Nov-17 02:56N 14°28' W 060°52'0 0.0
2017-Nov-17 02:29N 14°28' W 060°52'0 0.0
2017-Nov-17 01:56N 14°28' W 060°52'0 0.0
2017-Nov-17 01:29N 14°28' W 060°52'0 0.0
2017-Nov-17 00:59N 14°28' W 060°52'0 0.0
2017-Nov-17 00:29N 14°28' W 060°52'0 0.0
2017-Nov-16 23:59N 14°28' W 060°52'0 0.0
2017-Nov-16 23:29N 14°28' W 060°52'0 0.0
2017-Nov-16 22:59N 14°28' W 060°52'0 0.0
2017-Nov-16 22:29N 14°28' W 060°52'0 0.0
2017-Nov-16 21:59N 14°28' W 060°52'0 0.0
2017-Nov-16 21:26N 14°28' W 060°52'0 0.0
2017-Nov-16 20:59N 14°28' W 060°52'0 0.0
2017-Nov-16 20:29N 14°28' W 060°52'0 0.0
2017-Nov-16 19:59N 14°28' W 060°52'0 0.0
2017-Nov-16 19:29N 14°28' W 060°52'0 0.0
2017-Nov-16 18:55N 14°28' W 060°52'0 0.0
2017-Nov-16 18:29N 14°28' W 060°52'0 0.0
2017-Nov-16 17:59N 14°28' W 060°52'0 0.0
2017-Nov-16 17:26N 14°28' W 060°52'0 0.0
2017-Nov-16 17:00N 14°28' W 060°52'0 0.5
2017-Nov-16 16:31N 14°28' W 060°52'2 4.1
2017-Nov-16 16:00N 14°27' W 060°54'3 5.3
2017-Nov-16 15:30N 14°24' W 060°54'3 5.8
2017-Nov-16 15:00N 14°21' W 060°55'  
2017-Nov-10 13:43N 14°18' W 060°57'1 4.3
2017-Nov-10 13:27N 14°19' W 060°56'3 5.9
2017-Nov-10 13:00N 14°22' W 060°55'3 6.1
2017-Nov-10 12:31N 14°25' W 060°54'2 3.2
2017-Nov-10 12:01N 14°26' W 060°54'2 3.5
2017-Nov-10 11:30N 14°28' W 060°53'1 1.6
2017-Nov-10 10:58N 14°28' W 060°52'0 0.0
2017-Nov-10 10:22N 14°28' W 060°52'0 0.0
2017-Nov-10 09:58N 14°28' W 060°52'0 0.0
2017-Nov-10 09:28N 14°28' W 060°52'0 0.0
2017-Nov-10 08:55N 14°28' W 060°52'0 0.0
2017-Nov-10 08:28N 14°28' W 060°52'0 0.0
2017-Nov-10 07:58N 14°28' W 060°52'0 0.0
2017-Nov-10 07:28N 14°28' W 060°52'0 0.0
2017-Nov-10 06:58N 14°28' W 060°52'0 0.0
2017-Nov-10 06:28N 14°28' W 060°52'0 0.0
2017-Nov-10 05:58N 14°28' W 060°52'0 0.0
2017-Nov-10 05:28N 14°28' W 060°52'0 0.0
2017-Nov-10 04:58N 14°28' W 060°52'0 0.0
2017-Nov-10 04:28N 14°28' W 060°52'0 0.0
2017-Nov-10 04:00N 14°28' W 060°52'0 0.0
2017-Nov-10 03:30N 14°28' W 060°52'0 0.0
2017-Nov-10 02:54N 14°28' W 060°52'0 0.0
2017-Nov-10 02:30N 14°28' W 060°52'0 0.0
2017-Nov-10 02:00N 14°28' W 060°52'0 0.0
2017-Nov-10 01:30N 14°28' W 060°52'0 0.0
2017-Nov-10 00:57N 14°28' W 060°52'0 0.0
2017-Nov-10 00:30N 14°28' W 060°52'0 0.0
2017-Nov-09 23:57N 14°28' W 060°52'0 0.0
2017-Nov-09 23:30N 14°28' W 060°52'0 0.0
2017-Nov-09 23:00N 14°28' W 060°52'0 0.0
2017-Nov-09 22:30N 14°28' W 060°52'0 0.0
2017-Nov-09 22:00N 14°28' W 060°52'0 0.0
2017-Nov-09 21:25N 14°28' W 060°52'0 0.0
2017-Nov-09 20:58N 14°28' W 060°52'0 0.0
2017-Nov-09 20:28N 14°28' W 060°52'0 0.0
2017-Nov-09 19:58N 14°28' W 060°52'0 0.0
2017-Nov-09 19:28N 14°28' W 060°52'0 0.1
2017-Nov-09 18:13N 14°28' W 060°52'0 0.0
2017-Nov-09 17:58N 14°28' W 060°52'0 0.0
2017-Nov-09 17:28N 14°28' W 060°52'0 0.0
2017-Nov-09 16:58N 14°28' W 060°52'0 0.0
2017-Nov-09 16:28N 14°28' W 060°52'0 0.0
2017-Nov-09 15:58N 14°28' W 060°52'0 0.0
2017-Nov-09 15:28N 14°28' W 060°52'0 0.0
2017-Nov-09 14:58N 14°28' W 060°52'0 0.0
2017-Nov-09 14:28N 14°28' W 060°52'0 0.0
2017-Nov-09 13:58N 14°28' W 060°52'0 0.0
2017-Nov-09 13:28N 14°28' W 060°52'0 0.0
2017-Nov-09 12:55N 14°28' W 060°52'0 0.6
2017-Nov-09 12:31N 14°28' W 060°52'1 1.0
2017-Nov-09 12:01N 14°28' W 060°53'1 2.8
2017-Nov-09 11:30N 14°26' W 060°53'0 0.0
2017-Nov-09 10:54N 14°26' W 060°53'0 0.0
2017-Nov-09 10:30N 14°26' W 060°53'0 0.0
2017-Nov-09 10:00N 14°26' W 060°53'0 0.0
2017-Nov-09 09:30N 14°26' W 060°53'0 0.0
2017-Nov-09 08:57N 14°26' W 060°53'0 0.0
2017-Nov-09 08:30N 14°26' W 060°53'0 0.0
2017-Nov-09 08:00N 14°26' W 060°53'0 0.0
2017-Nov-09 07:30N 14°26' W 060°53'0 0.0
2017-Nov-09 07:00N 14°26' W 060°53'0 0.0
2017-Nov-09 06:30N 14°26' W 060°53'0 0.0
2017-Nov-09 06:00N 14°26' W 060°53'0 0.0
2017-Nov-09 05:30N 14°26' W 060°53'0 0.0
2017-Nov-09 05:00N 14°26' W 060°53'0 0.0
2017-Nov-09 04:30N 14°26' W 060°53'0 0.0
2017-Nov-09 04:00N 14°26' W 060°53'0 0.0
2017-Nov-09 03:30N 14°26' W 060°53'0 0.0
2017-Nov-09 02:57N 14°26' W 060°53'0 0.0
2017-Nov-09 02:30N 14°26' W 060°53'0 0.0
2017-Nov-09 02:00N 14°26' W 060°53'0 0.0
2017-Nov-09 01:30N 14°26' W 060°53'0 0.0
2017-Nov-09 01:01N 14°26' W 060°53'0 0.0
2017-Nov-09 00:31N 14°26' W 060°53'0 0.0
2017-Nov-09 00:01N 14°26' W 060°53'0 0.0
2017-Nov-08 23:31N 14°26' W 060°53'0 0.0
2017-Nov-08 23:00N 14°26' W 060°53'0 0.0
2017-Nov-08 22:31N 14°26' W 060°53'0 0.0
2017-Nov-08 21:55N 14°26' W 060°53'0 0.0
2017-Nov-08 21:31N 14°26' W 060°53'0 0.0
2017-Nov-08 21:00N 14°26' W 060°53'0 0.0
2017-Nov-08 20:28N 14°26' W 060°53'0 0.0
2017-Nov-08 20:01N 14°26' W 060°53'0 0.0
2017-Nov-08 19:31N 14°26' W 060°53'0 0.0
2017-Nov-08 19:00N 14°26' W 060°53'0 0.0
2017-Nov-08 18:28N 14°26' W 060°53'0 0.0
2017-Nov-08 17:58N 14°26' W 060°53'0 0.0
2017-Nov-08 17:31N 14°26' W 060°53'0 0.0
2017-Nov-08 17:00N 14°26' W 060°53'0 0.0
2017-Nov-08 16:28N 14°26' W 060°53'0 0.0
2017-Nov-08 15:58N 14°26' W 060°53'0 0.0
2017-Nov-08 15:31N 14°26' W 060°53'0 0.0
2017-Nov-08 15:01N 14°26' W 060°53'0 0.0
2017-Nov-08 14:30N 14°26' W 060°53'0 0.0
2017-Nov-08 13:55N 14°26' W 060°53'0 0.5
2017-Nov-08 13:30N 14°26' W 060°53'3 5.1
2017-Nov-08 13:00N 14°27' W 060°56'2 3.6
2017-Nov-08 12:30N 14°27' W 060°58'2 4.6
2017-Nov-08 12:01N 14°27' W 061°00'  

Dump ship's entire track history